Time;durP1;ratioP1;P1;durP2;ratioP2;P2;SDS_P1;SDS_P2;PMS_P1;PMS_P2;Temp;Humidity;BMP_temperature;BMP_pressure;BME280_temperature;BME280_humidity;BME280_pressure;Samples;Min_cycle;Max_cycle;Signal;HPM_P1;HPM_P2
2021/01/08 00:01:47;;;;;;;1999.90;999.90;;;;;;;2.17;79.07;97897.72;5043712;28;20052;-65
2021/01/08 00:04:13;;;;;;;1999.90;999.90;;;;;;;2.00;79.74;97900.84;5041619;28;20080;-65
2021/01/08 00:06:42;;;;;;;1999.90;999.90;;;;;;;2.23;79.83;97888.41;5046901;28;20066;-66
2021/01/08 00:09:08;;;;;;;1999.90;999.90;;;;;;;1.97;80.39;97891.28;5044101;28;20091;-66
2021/01/08 00:11:37;;;;;;;1999.90;999.90;;;;;;;2.22;79.81;97895.81;5042645;28;20118;-66
2021/01/08 00:14:03;;;;;;;1999.90;999.90;;;;;;;2.33;79.28;97887.56;5042210;28;20490;-66
2021/01/08 00:16:34;;;;;;;1999.90;999.90;;;;;;;2.55;78.77;97887.13;5040604;28;20049;-67
2021/01/08 00:19:01;;;;;;;1999.90;999.90;;;;;;;2.49;78.92;97890.97;5044033;28;20441;-65
2021/01/08 00:21:55;;;;;;;1999.90;999.90;;;;;;;2.24;79.90;97890.06;5041385;28;20056;-65
2021/01/08 00:24:21;;;;;;;1999.90;999.90;;;;;;;2.03;81.13;97892.91;5032608;28;20056;-66
2021/01/08 00:26:50;;;;;;;1999.90;999.90;;;;;;;1.97;81.42;97896.75;5043906;28;20045;-65
2021/01/08 00:29:16;;;;;;;1999.90;999.90;;;;;;;1.84;82.14;97887.25;5043975;28;20048;-66
2021/01/08 00:31:45;;;;;;;1999.90;999.90;;;;;;;1.79;81.87;97900.94;5038175;28;20045;-65
2021/01/08 00:34:17;;;;;;;1999.90;999.90;;;;;;;1.91;82.53;97903.34;5045921;28;20053;-66
2021/01/08 00:36:49;;;;;;;1999.90;999.90;;;;;;;1.96;82.11;97895.13;5044897;28;20049;-66
2021/01/08 00:39:15;;;;;;;1999.90;999.90;;;;;;;1.73;82.72;97899.31;5040526;28;20048;-64
2021/01/08 00:41:41;;;;;;;1999.90;999.90;;;;;;;1.72;83.36;97890.31;5048158;28;20049;-64
2021/01/08 00:44:07;;;;;;;1999.90;999.90;;;;;;;1.57;83.85;97898.56;5042018;28;20494;-64
2021/01/08 00:46:41;;;;;;;1999.90;999.90;;;;;;;1.90;83.20;97890.78;5044414;28;20103;-66
2021/01/08 00:49:08;;;;;;;1999.90;999.90;;;;;;;1.92;82.52;97886.69;5043895;28;20083;-66
2021/01/08 00:51:36;;;;;;;1999.90;999.90;;;;;;;1.71;82.92;97887.88;5046838;28;20048;-66
2021/01/08 00:54:04;;;;;;;1999.90;999.90;;;;;;;2.14;82.07;97890.13;5046065;28;20413;-67
2021/01/08 00:56:30;;;;;;;1999.90;999.90;;;;;;;2.10;81.91;97884.44;5039774;28;20050;-65
2021/01/08 00:58:57;;;;;;;1999.90;999.90;;;;;;;1.82;82.71;97888.66;5032328;28;20049;-65
2021/01/08 01:01:23;;;;;;;1999.90;999.90;;;;;;;1.81;83.42;97889.75;5039035;28;20064;-66
2021/01/08 01:03:50;;;;;;;1999.90;999.90;;;;;;;1.69;84.40;97900.97;5043472;28;20045;-66
2021/01/08 01:06:30;;;;;;;1999.90;999.90;;;;;;;1.92;83.15;97891.31;5046240;28;20045;-66
2021/01/08 01:08:58;;;;;;;1999.90;999.90;;;;;;;2.17;82.42;97901.28;5035107;28;20041;-66
2021/01/08 01:11:26;;;;;;;1999.90;999.90;;;;;;;1.91;83.22;97895.16;5040455;28;20053;-66
2021/01/08 01:13:55;;;;;;;1999.90;999.90;;;;;;;2.15;83.39;97898.03;5041900;28;20081;-66
2021/01/08 01:16:23;;;;;;;1999.90;999.90;;;;;;;2.11;83.38;97889.59;5042744;28;20057;-67
2021/01/08 01:18:52;;;;;;;1999.90;999.90;;;;;;;2.53;82.30;97892.03;5047673;28;20130;-66
2021/01/08 01:21:19;;;;;;;1999.90;999.90;;;;;;;2.36;82.25;97892.44;5024886;28;20080;-66
2021/01/08 01:23:45;;;;;;;1999.90;999.90;;;;;;;2.27;82.90;97890.28;5048158;28;20436;-65
2021/01/08 01:26:13;;;;;;;1999.90;999.90;;;;;;;2.28;83.31;97896.59;5046021;28;20047;-66
2021/01/08 01:28:39;;;;;;;1999.90;999.90;;;;;;;2.28;82.58;97897.41;5048710;28;20052;-66
2021/01/08 01:31:06;;;;;;;1999.90;999.90;;;;;;;1.99;82.69;97888.28;5044293;28;20045;-66
2021/01/08 01:33:32;;;;;;;1999.90;999.90;;;;;;;2.20;83.36;97892.53;5050822;28;20102;-66
2021/01/08 01:36:02;;;;;;;1999.90;999.90;;;;;;;2.50;82.07;97887.97;5048236;28;20050;-66
2021/01/08 01:38:28;;;;;;;1999.90;999.90;;;;;;;2.34;82.66;97887.25;5038060;28;20056;-64
2021/01/08 01:40:54;;;;;;;1999.90;999.90;;;;;;;2.53;81.41;97890.16;5044155;28;20602;-65
2021/01/08 01:43:21;;;;;;;1999.90;999.90;;;;;;;2.68;81.21;97889.22;5046810;28;20127;-65
2021/01/08 01:45:47;;;;;;;1999.90;999.90;;;;;;;2.83;80.54;97891.00;5045281;28;20049;-66
2021/01/08 01:48:14;;;;;;;1999.90;999.90;;;;;;;2.32;81.11;97892.16;5044965;28;20098;-66
2021/01/08 01:50:43;;;;;;;1999.90;999.90;;;;;;;2.71;81.41;97885.91;5045679;28;20045;-66
2021/01/08 01:53:10;;;;;;;1999.90;999.90;;;;;;;2.92;80.30;97878.34;5039239;28;20049;-66
2021/01/08 01:55:37;;;;;;;1999.90;999.90;;;;;;;2.56;80.85;97875.09;5026109;28;20136;-66
2021/01/08 01:58:03;;;;;;;1999.90;999.90;;;;;;;2.34;82.01;97879.09;5045316;28;20052;-67
2021/01/08 02:00:29;;;;;;;1999.90;999.90;;;;;;;2.27;82.33;97878.56;5039985;28;20084;-67
2021/01/08 02:03:01;;;;;;;1999.90;999.90;;;;;;;2.16;82.59;97877.00;5044157;28;20045;-66
2021/01/08 02:05:29;;;;;;;1999.90;999.90;;;;;;;2.13;83.04;97872.94;5035798;28;20041;-66
2021/01/08 02:08:01;;;;;;;1999.90;999.90;;;;;;;2.22;82.56;97864.94;5042478;28;20084;-65
2021/01/08 02:10:30;;;;;;;;;;;;;;;2.22;82.72;97865.78;5047361;28;20045;-66
2021/01/08 02:13:00;;;;;;;1999.90;999.90;;;;;;;2.49;81.95;97869.97;5046905;28;19920;-67
2021/01/08 02:15:27;;;;;;;1999.90;999.90;;;;;;;2.39;82.00;97859.94;5038851;28;20098;-67
2021/01/08 02:17:55;;;;;;;1999.90;999.90;;;;;;;2.78;80.74;97861.00;5042469;28;20107;-66
2021/01/08 02:20:22;;;;;;;1999.90;999.90;;;;;;;2.74;80.88;97859.94;5025651;28;20041;-66
2021/01/08 02:23:09;;;;;;;1999.90;999.90;;;;;;;2.46;81.38;97851.44;5026781;28;20037;-66
2021/01/08 02:25:36;;;;;;;1999.90;999.90;;;;;;;2.64;80.84;97858.13;5047496;28;20041;-66
2021/01/08 02:28:08;;;;;;;1999.90;999.90;;;;;;;2.44;80.72;97846.25;5046185;28;20070;-66
2021/01/08 02:30:36;;;;;;;1999.90;999.90;;;;;;;2.42;82.04;97842.97;5042366;28;20049;-65
2021/01/08 02:33:04;;;;;;;1999.90;999.90;;;;;;;2.64;81.27;97856.19;5045793;28;20087;-66
2021/01/08 02:35:31;;;;;;;1999.90;999.90;;;;;;;1.93;82.78;97852.84;5042128;28;20045;-65
2021/01/08 02:37:59;;;;;;;1999.90;999.90;;;;;;;2.14;82.68;97851.94;5044860;28;20095;-65
2021/01/08 02:40:26;;;;;;;1999.90;999.90;;;;;;;1.68;84.81;97856.56;5041225;28;20552;-65
2021/01/08 02:42:59;;;;;;;1999.90;999.90;;;;;;;1.83;84.91;97852.09;5050945;28;20053;-66
2021/01/08 02:45:25;;;;;;;1999.90;999.90;;;;;;;1.63;84.89;97851.09;5045976;28;20053;-65
2021/01/08 02:47:51;;;;;;;1999.90;999.90;;;;;;;1.65;85.26;97854.34;5034435;28;20057;-67
2021/01/08 02:50:18;;;;;;;1999.90;999.90;;;;;;;1.59;86.02;97852.75;5042168;28;20125;-65
2021/01/08 02:52:48;;;;;;;1999.90;999.90;;;;;;;1.89;84.23;97851.81;5038500;28;20437;-65
2021/01/08 02:55:20;;;;;;;1999.90;999.90;;;;;;;1.74;85.18;97847.25;5036011;28;20103;-66
2021/01/08 02:57:46;;;;;;;;;;;;;;;1.70;84.81;97857.06;5041312;28;20087;-66
2021/01/08 03:00:14;;;;;;;1999.90;999.90;;;;;;;1.66;85.02;97849.75;5045259;28;19925;-67
2021/01/08 03:02:40;;;;;;;1999.90;999.90;;;;;;;1.91;84.35;97855.06;5040183;28;20278;-67
2021/01/08 03:05:07;;;;;;;1999.90;999.90;;;;;;;1.89;83.80;97861.88;5045345;28;20040;-66
2021/01/08 03:07:33;;;;;;;1999.90;999.90;;;;;;;1.80;84.70;97860.84;5042174;28;20051;-66
2021/01/08 03:10:00;;;;;;;1999.90;999.90;;;;;;;1.77;84.69;97859.47;5044840;28;20490;-66
2021/01/08 03:12:28;;;;;;;1999.90;999.90;;;;;;;1.71;84.32;97860.59;5044519;28;20060;-66
2021/01/08 03:14:55;;;;;;;1999.90;999.90;;;;;;;1.92;84.01;97853.13;5024628;28;20048;-66
2021/01/08 03:17:21;;;;;;;1999.90;999.90;;;;;;;1.76;84.52;97860.59;5046949;28;20110;-66
2021/01/08 03:19:47;;;;;;;1999.90;999.90;;;;;;;1.90;84.58;97858.88;5046420;28;20571;-66
2021/01/08 03:22:14;;;;;;;1999.90;999.90;;;;;;;1.72;84.40;97863.06;5044470;28;20476;-66
2021/01/08 03:24:40;;;;;;;1999.90;999.90;;;;;;;1.57;85.08;97861.22;5041742;28;20058;-66
2021/01/08 03:27:06;;;;;;;1999.90;999.90;;;;;;;1.88;84.48;97860.25;5039949;28;20049;-66
2021/01/08 03:29:32;;;;;;;1999.90;999.90;;;;;;;2.11;83.11;97862.31;5046602;28;20048;-66
2021/01/08 03:31:58;;;;;;;1999.90;999.90;;;;;;;1.91;83.68;97865.97;5046583;28;20539;-66
2021/01/08 03:34:25;;;;;;;1999.90;999.90;;;;;;;1.89;83.84;97867.34;5043011;28;20343;-66
2021/01/08 03:36:51;;;;;;;1999.90;999.90;;;;;;;1.94;84.45;97870.84;5045003;28;20428;-67
2021/01/08 03:39:17;;;;;;;1999.90;999.90;;;;;;;1.98;83.86;97860.22;5041529;28;20048;-65
2021/01/08 03:41:43;;;;;;;1999.90;999.90;;;;;;;2.01;83.64;97854.19;5045818;28;20075;-65
2021/01/08 03:44:09;;;;;;;1999.90;999.90;;;;;;;1.49;86.02;97863.69;5040810;28;20047;-65
2021/01/08 03:46:38;;;;;;;1999.90;999.90;;;;;;;1.64;85.20;97866.38;5037610;28;20046;-65
2021/01/08 03:49:06;;;;;;;1999.90;999.90;;;;;;;1.85;85.11;97863.56;5038337;28;20041;-66
2021/01/08 03:51:33;;;;;;;1999.90;999.90;;;;;;;1.87;84.83;97855.91;5040191;28;20045;-66
2021/01/08 03:53:59;;;;;;;1999.90;999.90;;;;;;;1.93;84.12;97858.31;5041642;28;20046;-65
2021/01/08 03:56:25;;;;;;;1999.90;999.90;;;;;;;1.90;83.97;97855.34;5042448;28;20060;-65
2021/01/08 03:58:51;;;;;;;1999.90;999.90;;;;;;;2.01;84.06;97859.66;5042649;28;20239;-67
2021/01/08 04:01:18;;;;;;;1999.90;999.90;;;;;;;2.29;83.58;97857.28;5039935;28;20056;-65
2021/01/08 04:03:44;;;;;;;1999.90;999.90;;;;;;;2.35;82.64;97853.41;5034394;28;20052;-66
2021/01/08 04:06:11;;;;;;;1999.90;999.90;;;;;;;2.14;83.11;97860.09;5038373;28;20102;-66
2021/01/08 04:08:37;;;;;;;1999.90;999.90;;;;;;;2.04;83.69;97858.25;5039161;28;20060;-66
2021/01/08 04:11:04;;;;;;;1999.90;999.90;;;;;;;2.07;84.33;97858.50;5039087;28;20131;-65
2021/01/08 04:13:30;;;;;;;1999.90;999.90;;;;;;;2.19;83.00;97851.88;5041525;28;20461;-66
2021/01/08 04:15:56;;;;;;;1999.90;999.90;;;;;;;2.10;83.80;97857.16;5041233;28;20673;-66
2021/01/08 04:18:22;;;;;;;1999.90;999.90;;;;;;;2.13;83.23;97853.84;5039726;28;20049;-66
2021/01/08 04:20:48;;;;;;;1999.90;999.90;;;;;;;2.10;84.24;97855.22;5040100;28;20048;-64
2021/01/08 04:23:14;;;;;;;1999.90;999.90;;;;;;;2.00;83.84;97855.28;5045325;28;20044;-66
2021/01/08 04:25:40;;;;;;;1999.90;999.90;;;;;;;2.11;84.25;97859.59;5044402;28;20075;-66
2021/01/08 04:28:07;;;;;;;1999.90;999.90;;;;;;;1.92;84.39;97858.59;5040742;28;20557;-66
2021/01/08 04:30:33;;;;;;;1999.90;999.90;;;;;;;2.18;83.53;97853.00;5040094;28;20049;-66
2021/01/08 04:32:59;;;;;;;1999.90;999.90;;;;;;;2.19;83.79;97843.69;5045668;28;20504;-66
2021/01/08 04:35:25;;;;;;;1999.90;999.90;;;;;;;2.64;81.70;97849.91;5042770;28;20052;-66
2021/01/08 04:37:51;;;;;;;1999.90;999.90;;;;;;;2.41;82.82;97857.75;5039081;28;20818;-66
2021/01/08 04:40:19;;;;;;;1999.90;999.90;;;;;;;2.66;81.97;97853.16;5037785;28;20052;-66
2021/01/08 04:42:47;;;;;;;1999.90;999.90;;;;;;;2.37;83.00;97851.22;5043239;28;20249;-66
2021/01/08 04:45:14;;;;;;;1999.90;999.90;;;;;;;2.31;82.56;97868.75;5036569;28;20037;-66
2021/01/08 04:47:41;;;;;;;1999.90;999.90;;;;;;;2.04;84.64;97856.34;5041614;28;20049;-66
2021/01/08 04:50:08;;;;;;;1999.90;999.90;;;;;;;2.14;84.04;97863.66;5039493;28;20119;-66
2021/01/08 04:52:35;;;;;;;1999.90;999.90;;;;;;;2.18;83.89;97853.00;5036492;28;20216;-67
2021/01/08 04:55:01;;;;;;;1999.90;999.90;;;;;;;2.46;82.74;97854.97;5044116;28;20415;-67
2021/01/08 04:57:31;;;;;;;1999.90;999.90;;;;;;;2.10;83.35;97857.94;5042053;28;20110;-67
2021/01/08 04:59:57;;;;;;;1999.90;999.90;;;;;;;2.07;84.01;97855.78;5041827;28;20285;-66
2021/01/08 05:02:23;;;;;;;1999.90;999.90;;;;;;;1.90;84.68;97855.34;5038463;28;20056;-66
2021/01/08 05:04:50;;;;;;;1999.90;999.90;;;;;;;1.80;84.89;97855.38;5041525;28;20036;-66
2021/01/08 05:07:16;;;;;;;1999.90;999.90;;;;;;;1.84;85.29;97851.81;5039540;28;20045;-66
2021/01/08 05:09:44;;;;;;;1999.90;999.90;;;;;;;1.66;86.65;97849.75;5035867;28;20057;-66
2021/01/08 05:12:10;;;;;;;1999.90;999.90;;;;;;;1.88;85.31;97855.63;5037670;28;20501;-66
2021/01/08 05:14:36;;;;;;;1999.90;999.90;;;;;;;1.91;84.80;97854.25;5043046;28;20049;-65
2021/01/08 05:17:03;;;;;;;1999.90;999.90;;;;;;;1.88;84.82;97855.63;5035668;28;20463;-65
2021/01/08 05:19:29;;;;;;;1999.90;999.90;;;;;;;1.92;84.55;97855.84;5039927;28;20515;-66
2021/01/08 05:21:55;;;;;;;1999.90;999.90;;;;;;;1.85;84.43;97861.63;5039858;28;20413;-65
2021/01/08 05:24:25;;;;;;;1999.90;999.90;;;;;;;2.06;83.94;97850.63;5042484;28;20501;-66
2021/01/08 05:26:51;;;;;;;1999.90;999.90;;;;;;;2.35;83.19;97856.13;5041658;28;20448;-67
2021/01/08 05:29:18;;;;;;;1999.90;999.90;;;;;;;2.09;83.61;97856.31;5045769;28;20052;-66
2021/01/08 05:31:46;;;;;;;1999.90;999.90;;;;;;;1.91;84.48;97859.69;5039321;28;20099;-66
2021/01/08 05:34:21;;;;;;;1999.90;999.90;;;;;;;1.86;84.97;97856.97;5042316;28;20402;-67
2021/01/08 05:36:49;;;;;;;1999.90;999.90;;;;;;;1.57;85.11;97861.22;5042807;28;20049;-65
2021/01/08 05:39:20;;;;;;;1999.90;999.90;;;;;;;1.22;85.67;97853.97;5043501;28;20049;-66
2021/01/08 05:41:46;;;;;;;1999.90;999.90;;;;;;;1.47;86.00;97865.88;5049131;28;20048;-66
2021/01/08 05:44:16;;;;;;;1999.90;999.90;;;;;;;1.67;85.02;97857.63;5042844;28;20389;-66
2021/01/08 05:46:47;;;;;;;1999.90;999.90;;;;;;;1.64;84.85;97860.91;5040472;28;20057;-67
2021/01/08 05:49:16;;;;;;;1999.90;999.90;;;;;;;1.83;84.20;97863.84;5037908;28;20156;-67
2021/01/08 05:51:44;;;;;;;1999.90;999.90;;;;;;;1.66;84.34;97858.72;5042089;28;20540;-66
2021/01/08 05:54:10;;;;;;;1999.90;999.90;;;;;;;1.60;84.39;97864.50;5038891;28;20493;-66
2021/01/08 05:56:38;;;;;;;1999.90;999.90;;;;;;;1.42;84.37;97865.91;5038392;28;20422;-66
2021/01/08 05:59:08;;;;;;;1999.90;999.90;;;;;;;1.37;85.11;97862.09;5045724;28;20099;-65
2021/01/08 06:01:39;;;;;;;1999.90;999.90;;;;;;;1.69;83.59;97858.16;5038654;28;20468;-66
2021/01/08 06:04:08;;;;;;;1999.90;999.90;;;;;;;1.50;84.12;97859.88;5042282;28;20056;-65
2021/01/08 06:06:41;;;;;;;1999.90;999.90;;;;;;;1.48;83.96;97857.44;5036145;28;20056;-66
2021/01/08 06:09:12;;;;;;;1999.90;999.90;;;;;;;1.37;84.30;97862.09;5038238;28;20049;-65
2021/01/08 06:11:43;;;;;;;1999.90;999.90;;;;;;;1.39;84.63;97862.63;5041280;28;20304;-65
2021/01/08 06:14:11;;;;;;;1999.90;999.90;;;;;;;1.42;84.67;97866.72;5021517;28;20057;-66
2021/01/08 06:16:39;;;;;;;1999.90;999.90;;;;;;;1.66;83.64;97857.91;5025110;28;20756;-65
2021/01/08 06:19:06;;;;;;;1999.90;999.90;;;;;;;1.56;83.19;97856.88;5019918;28;20056;-66
2021/01/08 06:21:35;;;;;;;1999.90;999.90;;;;;;;1.34;84.00;97861.84;5022835;28;20068;-65
2021/01/08 06:24:02;;;;;;;1999.90;999.90;;;;;;;1.65;82.71;97862.53;5021900;28;20045;-66
2021/01/08 06:26:32;;;;;;;1999.90;999.90;;;;;;;1.36;83.80;97868.66;5021987;28;20065;-65
2021/01/08 06:29:01;;;;;;;1999.90;999.90;;;;;;;1.43;83.83;97867.53;5014727;28;20057;-66
2021/01/08 06:31:46;;;;;;;1999.90;999.90;;;;;;;1.58;83.67;97864.75;5022168;28;20587;-67
2021/01/08 06:34:21;;;;;;;1999.90;999.90;;;;;;;1.21;84.80;97871.41;5022372;28;20092;-66
2021/01/08 06:36:58;;;;;;;1999.90;999.90;;;;;;;1.51;83.63;97869.69;5019140;28;20063;-67
2021/01/08 06:39:32;;;;;;;1999.90;999.90;;;;;;;1.39;83.77;97865.38;5022142;28;20053;-66
2021/01/08 06:42:00;;;;;;;1999.90;999.90;;;;;;;1.76;83.38;97861.41;5024686;28;20045;-66
2021/01/08 06:44:31;;;;;;;1999.90;999.90;;;;;;;1.74;82.56;97871.78;5019216;28;20489;-66
2021/01/08 06:46:58;;;;;;;1999.90;999.90;;;;;;;1.33;84.00;97869.19;5021132;28;20103;-66
2021/01/08 06:49:25;;;;;;;1999.90;999.90;;;;;;;1.65;82.85;97873.44;5014817;28;20443;-66
2021/01/08 06:51:51;;;;;;;1999.90;999.90;;;;;;;1.28;84.16;97868.38;5020984;28;20053;-66
2021/01/08 06:54:17;;;;;;;1999.90;999.90;;;;;;;1.30;84.55;97871.69;5015697;28;20326;-67
2021/01/08 06:56:45;;;;;;;1999.90;999.90;;;;;;;1.37;84.33;97883.91;5014905;28;20126;-66
2021/01/08 06:59:17;;;;;;;1999.90;999.90;;;;;;;1.43;83.83;97881.16;5016016;28;20065;-66
2021/01/08 07:01:55;;;;;;;1999.90;999.90;;;;;;;1.66;83.38;97879.72;5017687;28;20045;-65
2021/01/08 07:04:29;;;;;;;1999.90;999.90;;;;;;;1.65;84.20;97884.34;5020970;28;20099;-65
2021/01/08 07:07:02;;;;;;;1999.90;999.90;;;;;;;1.95;81.68;97877.13;5017940;28;20053;-66
2021/01/08 07:09:35;;;;;;;1999.90;999.90;;;;;;;2.01;81.21;97880.63;5014190;28;20089;-66
2021/01/08 07:12:04;;;;;;;1999.90;999.90;;;;;;;2.21;81.15;97880.50;5016631;28;20130;-66
2021/01/08 07:14:31;;;;;;;1999.90;999.90;;;;;;;1.83;81.88;97885.66;5032710;28;20052;-66
2021/01/08 07:16:58;;;;;;;1999.90;999.90;;;;;;;1.81;82.65;97884.28;5035866;28;20210;-66
2021/01/08 07:19:28;;;;;;;1999.90;999.90;;;;;;;2.14;81.33;97885.47;5032723;28;20067;-66
2021/01/08 07:21:58;;;;;;;1999.90;999.90;;;;;;;2.19;81.56;97888.19;5042936;28;20045;-66
2021/01/08 07:24:31;;;;;;;1999.90;999.90;;;;;;;2.08;80.59;97892.88;5044802;28;20436;-66
2021/01/08 07:27:26;;;;;;;1999.90;999.90;;;;;;;1.88;81.36;97903.91;5039960;28;20421;-65
2021/01/08 07:29:57;;;;;;;1999.90;999.90;;;;;;;2.02;81.39;97899.44;5061223;28;20115;-65
2021/01/08 07:32:36;;;;;;;1999.90;999.90;;;;;;;1.80;82.43;97904.47;5036051;28;20094;-65
2021/01/08 07:35:22;;;;;;;1999.90;999.90;;;;;;;1.94;81.46;97903.56;5030625;28;20120;-65
2021/01/08 07:37:58;;;;;;;1999.90;999.90;;;;;;;2.12;80.49;97906.75;5045148;28;20060;-66
2021/01/08 07:40:26;;;;;;;1999.90;999.90;;;;;;;1.94;81.11;97911.75;5043948;28;20112;-66
2021/01/08 11:48:13;;;;;;;1999.90;999.90;;;;;;;4.72;69.26;97891.72;5006631;28;20413;-66
2021/01/08 11:50:40;;;;;;;1999.90;999.90;;;;;;;4.86;68.10;97878.88;5000543;28;20058;-67
2021/01/08 11:53:06;;;;;;;1999.90;999.90;;;;;;;4.81;68.81;97880.88;4996469;28;20054;-67
2021/01/08 11:55:32;;;;;;;1999.90;999.90;;;;;;;5.07;67.76;97878.53;4997865;28;20054;-67
2021/01/08 11:57:58;;;;;;;1999.90;999.90;;;;;;;4.55;68.76;97882.09;4999309;28;20061;-67
2021/01/08 12:00:24;;;;;;;1999.90;999.90;;;;;;;4.54;68.25;97883.22;4990831;28;20081;-67
2021/01/08 12:02:50;;;;;;;1999.90;999.90;;;;;;;4.37;68.69;97880.19;4995397;28;20286;-66
2021/01/08 12:05:17;;;;;;;1999.90;999.90;;;;;;;4.50;68.39;97881.38;5001439;28;20140;-67
2021/01/08 12:07:47;;;;;;;1999.90;999.90;;;;;;;4.36;68.16;97881.28;4986448;28;20066;-67
2021/01/08 12:10:13;;;;;;;1999.90;999.90;;;;;;;4.55;68.32;97884.84;4994334;28;20126;-67
2021/01/08 12:12:40;;;;;;;1999.90;999.90;;;;;;;4.47;67.49;97880.03;4999939;28;20108;-66
2021/01/08 12:15:06;;;;;;;1999.90;999.90;;;;;;;4.09;67.82;97888.22;4997175;28;20050;-66
2021/01/08 12:17:32;;;;;;;1999.90;999.90;;;;;;;3.83;68.68;97891.31;4994840;28;20489;-66
2021/01/08 12:19:59;;;;;;;1999.90;999.90;;;;;;;3.72;69.47;97895.25;4998054;28;20046;-66
2021/01/08 12:22:25;;;;;;;1999.90;999.90;;;;;;;3.05;70.95;97896.00;4998298;28;20049;-66
2021/01/08 12:24:51;;;;;;;1999.90;999.90;;;;;;;3.43;70.26;97893.41;4994827;28;20057;-66
2021/01/08 12:27:18;;;;;;;1999.90;999.90;;;;;;;3.20;71.15;97895.03;4997544;28;20096;-66
2021/01/08 12:29:44;;;;;;;1999.90;999.90;;;;;;;3.98;69.52;97893.03;5001123;28;20066;-67
2021/01/08 12:32:10;;;;;;;1999.90;999.90;;;;;;;4.17;68.78;97884.06;4996144;28;20054;-66
2021/01/08 12:34:38;;;;;;;1999.90;999.90;;;;;;;3.68;70.79;97886.84;4998427;28;20077;-66
2021/01/08 12:37:04;;;;;;;1999.90;999.90;;;;;;;3.85;70.37;97889.09;4995331;28;20220;-66
2021/01/08 12:39:31;;;;;;;1999.90;999.90;;;;;;;3.90;70.20;97882.75;4999304;28;20109;-66
2021/01/08 12:41:59;;;;;;;1999.90;999.90;;;;;;;3.78;70.38;97874.97;4999200;28;20138;-66
2021/01/08 12:44:25;;;;;;;1999.90;999.90;;;;;;;3.68;70.70;97884.09;5000701;28;20042;-66
2021/01/08 12:46:51;;;;;;;1999.90;999.90;;;;;;;3.43;71.00;97882.47;5001592;28;20050;-66
2021/01/08 12:49:17;;;;;;;1999.90;999.90;;;;;;;3.06;72.01;97880.41;4983515;28;20050;-66
2021/01/08 12:51:50;;;;;;;1999.90;999.90;;;;;;;3.03;72.17;97883.72;4982302;28;20628;-66
2021/01/08 12:54:17;;;;;;;1999.90;999.90;;;;;;;3.18;71.28;97881.63;4982926;28;20117;-66
2021/01/08 12:56:43;;;;;;;1999.90;999.90;;;;;;;3.51;70.37;97873.66;4984126;28;20046;-66
2021/01/08 12:59:10;;;;;;;1999.90;999.90;;;;;;;3.42;70.65;97882.78;4983385;28;20050;-66
2021/01/08 13:01:36;;;;;;;1999.90;999.90;;;;;;;3.61;70.65;97872.69;4983811;28;20076;-66
2021/01/08 13:04:03;;;;;;;1999.90;999.90;;;;;;;3.34;71.38;97879.56;4984137;28;20473;-66
2021/01/08 13:06:29;;;;;;;1999.90;999.90;;;;;;;3.22;72.07;97875.63;4983464;28;20042;-65
2021/01/08 13:08:56;;;;;;;1999.90;999.90;;;;;;;3.20;71.06;97869.59;4987087;28;20050;-65
2021/01/08 13:11:23;;;;;;;1999.90;999.90;;;;;;;2.86;73.10;97878.66;4984912;28;20042;-65
2021/01/08 13:13:49;;;;;;;1999.90;999.90;;;;;;;2.92;72.67;97878.34;4986143;28;20326;-65
2021/01/08 13:16:20;;;;;;;1999.90;999.90;;;;;;;3.27;71.53;97870.09;4983514;28;20122;-65
2021/01/08 13:18:46;;;;;;;1999.90;999.90;;;;;;;3.39;71.10;97878.69;4985925;28;20082;-66
2021/01/08 13:21:13;;;;;;;1999.90;999.90;;;;;;;3.31;71.36;97880.16;4983422;28;20051;-66
2021/01/08 13:23:44;;;;;;;1999.90;999.90;;;;;;;3.42;71.06;97874.56;4986936;28;20398;-67
2021/01/08 13:26:25;;;;;;;1999.90;999.90;;;;;;;3.65;70.94;97881.16;4986800;28;20065;-66
2021/01/08 13:28:52;;;;;;;1999.90;999.90;;;;;;;3.42;71.13;97886.31;4982825;28;20081;-66
2021/01/08 13:31:25;;;;;;;1999.90;999.90;;;;;;;2.98;72.10;97892.78;4984939;28;20112;-66
2021/01/08 13:33:53;;;;;;;1999.90;999.90;;;;;;;3.08;72.17;97891.84;4986593;28;20046;-66
2021/01/08 13:36:19;;;;;;;1999.90;999.90;;;;;;;3.09;72.29;97888.84;4985140;28;20042;-66
2021/01/08 13:38:45;;;;;;;1999.90;999.90;;;;;;;3.14;72.10;97888.81;4983694;28;20050;-66
2021/01/08 13:41:12;;;;;;;1999.90;999.90;;;;;;;3.09;72.75;97888.84;4985917;28;20776;-66
2021/01/08 13:43:38;;;;;;;1999.90;999.90;;;;;;;2.89;73.10;97889.84;4983144;28;20054;-66
2021/01/08 13:46:04;;;;;;;1999.90;999.90;;;;;;;2.92;74.09;97894.75;4982274;28;20042;-67
2021/01/08 13:48:30;;;;;;;1999.90;999.90;;;;;;;3.01;73.42;97894.94;4980330;28;20054;-66
2021/01/08 13:50:58;;;;;;;1999.90;999.90;;;;;;;3.39;72.37;97895.09;4983750;28;20061;-66
2021/01/08 13:53:24;;;;;;;1999.90;999.90;;;;;;;3.34;72.57;97897.91;4986921;28;20126;-64
2021/01/08 13:55:50;;;;;;;1999.90;999.90;;;;;;;3.06;72.50;97894.06;4983562;28;20063;-66
2021/01/08 13:58:16;;;;;;;1999.90;999.90;;;;;;;3.02;73.23;97899.28;4978662;28;20078;-66
2021/01/08 14:00:43;;;;;;;1999.90;999.90;;;;;;;2.51;75.03;97908.69;4980899;28;20572;-66
2021/01/08 14:03:09;;;;;;;1999.90;999.90;;;;;;;2.37;74.93;97900.34;4986315;28;20050;-66
2021/01/08 14:05:41;;;;;;;1999.90;999.90;;;;;;;2.51;74.00;97899.72;4984136;28;20058;-66
2021/01/08 14:08:08;;;;;;;1999.90;999.90;;;;;;;2.40;74.22;97902.50;4983808;28;20462;-65
2021/01/08 14:10:34;;;;;;;1999.90;999.90;;;;;;;2.11;74.51;97897.78;4985436;28;20388;-64
2021/01/08 14:13:01;;;;;;;1999.90;999.90;;;;;;;2.43;74.10;97899.22;4977852;28;20491;-65
2021/01/08 14:15:29;;;;;;;1999.90;999.90;;;;;;;2.21;74.60;97896.09;4985094;28;20486;-65
2021/01/08 14:17:55;;;;;;;1999.90;999.90;;;;;;;2.38;73.51;97895.69;4976414;28;20046;-65
2021/01/08 14:20:21;;;;;;;1999.90;999.90;;;;;;;2.10;74.60;97896.13;4984553;28;20057;-65
2021/01/08 14:22:47;;;;;;;1999.90;999.90;;;;;;;1.79;74.62;97900.09;4982644;28;20054;-65
2021/01/08 14:25:14;;;;;;;1999.90;999.90;;;;;;;1.93;74.34;97898.41;4986473;28;20454;-64
2021/01/08 14:27:40;;;;;;;1999.90;999.90;;;;;;;1.97;74.69;97901.41;4979935;28;20336;-67
2021/01/08 14:30:07;;;;;;;1999.90;999.90;;;;;;;2.16;74.54;97907.00;4983339;28;20545;-64
2021/01/08 14:32:35;;;;;;;1999.90;999.90;;;;;;;2.12;74.55;97906.75;4985421;28;20046;-65
2021/01/08 14:35:02;;;;;;;1999.90;999.90;;;;;;;2.14;73.76;97906.47;4979671;28;20293;-66
2021/01/08 14:37:28;;;;;;;1999.90;999.90;;;;;;;2.16;75.28;97904.28;4984167;28;20105;-65
2021/01/08 14:39:54;;;;;;;1999.90;999.90;;;;;;;1.94;74.28;97902.78;4977231;28;20467;-65
2021/01/08 14:42:20;;;;;;;1999.90;999.90;;;;;;;2.12;75.29;97909.50;4980634;28;20120;-65
2021/01/08 14:44:46;;;;;;;1999.90;999.90;;;;;;;1.86;75.36;97915.09;4980504;28;20113;-65
2021/01/08 14:47:13;;;;;;;1999.90;999.90;;;;;;;1.93;75.27;97909.31;5014858;28;20384;-65
2021/01/08 14:49:39;;;;;;;1999.90;999.90;;;;;;;2.00;74.74;97906.28;4976206;28;20108;-65
2021/01/08 14:52:07;;;;;;;1999.90;999.90;;;;;;;1.95;75.15;97909.88;4981733;28;20062;-65
2021/01/08 14:54:33;;;;;;;1999.90;999.90;;;;;;;2.31;74.29;97908.84;4980246;28;20050;-65
2021/01/08 14:56:59;;;;;;;1999.90;999.90;;;;;;;1.75;74.83;97908.84;4979647;28;20053;-66
2021/01/08 14:59:25;;;;;;;1999.90;999.90;;;;;;;1.96;74.79;97910.66;4979606;28;20549;-65
2021/01/08 15:02:01;;;;;;;1999.90;999.90;;;;;;;2.32;73.65;97913.19;4980780;28;20062;-65
2021/01/08 15:04:28;;;;;;;1999.90;999.90;;;;;;;2.22;74.16;97912.16;4977734;28;20054;-65
2021/01/08 15:06:54;;;;;;;1999.90;999.90;;;;;;;2.25;73.57;97910.78;4980763;28;20569;-65
2021/01/08 15:09:20;;;;;;;1999.90;999.90;;;;;;;2.07;74.71;97915.78;4978695;28;20094;-65
2021/01/08 15:11:46;;;;;;;1999.90;999.90;;;;;;;1.88;74.92;97909.34;4978036;28;20058;-65